createdAt,value
2022-08-08T00:00:54.070Z,2.78
2022-08-08T00:03:19.916Z,2.72
2022-08-08T00:06:34.991Z,2.83
2022-08-08T00:09:43.371Z,2.55
2022-08-08T00:12:15.270Z,2.65
2022-08-08T00:15:05.012Z,3.08
2022-08-08T00:18:03.072Z,2.80
2022-08-08T00:20:56.726Z,2.95
2022-08-08T00:23:42.495Z,2.92
2022-08-08T00:26:21.875Z,3.15
2022-08-08T00:29:01.474Z,3.25
2022-08-08T00:32:20.780Z,3.20
2022-08-08T00:35:08.863Z,3.58
2022-08-08T00:38:31.842Z,2.83
2022-08-08T00:41:54.842Z,2.75
2022-08-08T00:44:51.122Z,3.25
2022-08-08T00:48:02.142Z,2.92
2022-08-08T00:50:40.985Z,3.40
2022-08-08T00:53:57.126Z,3.50
2022-08-08T00:57:12.742Z,3.00
2022-08-08T01:00:07.708Z,3.15
2022-08-08T01:04:02.319Z,3.03
2022-08-08T01:06:57.275Z,2.95
2022-08-08T01:10:17.219Z,2.70
2022-08-08T01:13:43.812Z,2.60
2022-08-08T01:16:57.489Z,3.00
2022-08-08T01:20:44.345Z,3.20
2022-08-08T01:24:03.819Z,3.38
2022-08-08T01:26:52.424Z,3.13
2022-08-08T01:30:08.710Z,3.00
2022-08-08T01:33:02.016Z,3.13
2022-08-08T01:36:30.319Z,2.78
2022-08-08T01:39:43.042Z,3.13
2022-08-08T01:42:36.182Z,2.85
2022-08-08T01:45:54.247Z,3.17
2022-08-08T01:48:59.639Z,3.25
2022-08-08T01:52:04.469Z,2.50
2022-08-08T01:56:26.840Z,2.92
2022-08-08T01:59:11.835Z,2.65
2022-08-08T02:02:34.044Z,2.80
2022-08-08T02:05:14.763Z,3.15
2022-08-08T02:08:34.054Z,3.00
2022-08-08T02:11:59.361Z,3.00
2022-08-08T02:14:55.127Z,2.72
2022-08-08T02:17:36.035Z,3.47
2022-08-08T02:21:02.223Z,3.08
2022-08-08T02:23:21.160Z,3.33
2022-08-08T02:26:08.143Z,2.90
2022-08-08T02:29:01.103Z,3.28
2022-08-08T02:32:04.931Z,3.33
2022-08-08T02:35:10.805Z,3.45
2022-08-08T02:38:11.462Z,2.92
2022-08-08T02:44:36.885Z,2.67
2022-08-08T02:47:46.786Z,4.50
2022-08-08T02:50:55.657Z,3.05
2022-08-08T02:54:08.426Z,3.42
2022-08-08T02:56:51.069Z,3.28
2022-08-08T03:00:01.597Z,3.03
2022-08-08T03:03:04.167Z,3.22
2022-08-08T03:05:46.498Z,3.85
2022-08-08T03:08:54.172Z,3.03
2022-08-08T03:12:36.610Z,3.85
2022-08-08T03:16:19.794Z,2.85
2022-08-08T03:20:03.725Z,3.40
2022-08-08T03:22:38.651Z,3.35
2022-08-08T03:27:41.819Z,3.00
2022-08-08T03:30:15.338Z,3.38
2022-08-08T03:33:08.026Z,2.88
2022-08-08T03:36:00.645Z,3.38
2022-08-08T03:38:57.067Z,3.03
2022-08-08T03:42:03.965Z,3.40
2022-08-08T03:44:05.101Z,3.40
2022-08-08T03:46:50.639Z,3.28
2022-08-08T03:49:58.963Z,2.90
2022-08-08T03:52:14.511Z,3.10
2022-08-08T03:55:02.531Z,3.22
2022-08-08T03:58:35.760Z,3.75
2022-08-08T04:00:26.089Z,2.95
2022-08-08T04:03:11.037Z,3.47
2022-08-08T04:05:39.996Z,2.60
2022-08-08T04:08:33.614Z,3.25
2022-08-08T04:11:11.363Z,2.80
2022-08-08T04:14:03.363Z,3.65
2022-08-08T04:16:40.092Z,3.55
2022-08-08T04:19:25.052Z,3.20
2022-08-08T04:21:58.569Z,3.15
2022-08-08T04:24:31.844Z,3.25
2022-08-08T04:27:02.351Z,3.25
2022-08-08T04:29:37.493Z,3.55
2022-08-08T04:32:10.710Z,3.15
2022-08-08T04:34:42.874Z,2.80
2022-08-08T04:37:16.905Z,3.58
2022-08-08T04:40:05.372Z,3.50
2022-08-08T04:42:36.852Z,2.80
2022-08-08T04:45:05.971Z,3.53
2022-08-08T04:47:43.244Z,3.45
2022-08-08T04:50:25.169Z,3.22
2022-08-08T04:53:00.684Z,3.10
2022-08-08T04:55:47.666Z,4.43
2022-08-08T04:58:20.780Z,3.53
2022-08-08T05:00:50.100Z,3.10
2022-08-08T05:04:07.648Z,3.30
2022-08-08T05:06:13.061Z,3.50
2022-08-08T05:08:51.676Z,3.28
2022-08-08T05:11:24.388Z,2.92
2022-08-08T05:16:51.480Z,2.85
2022-08-08T05:20:10.418Z,3.13
2022-08-08T05:22:09.766Z,3.67
2022-08-08T05:24:40.472Z,3.15
2022-08-08T05:27:08.470Z,3.00
2022-08-08T05:29:38.227Z,2.90
2022-08-08T05:32:09.549Z,3.60
2022-08-08T05:34:49.478Z,3.47
2022-08-08T05:37:39.397Z,5.32
2022-08-08T05:40:14.646Z,3.42
2022-08-08T05:42:52.098Z,3.90
2022-08-08T05:45:25.186Z,3.42
2022-08-08T05:48:08.793Z,2.78
2022-08-08T05:50:38.597Z,3.70
2022-08-08T05:53:54.668Z,3.53
2022-08-08T05:56:10.410Z,4.40
2022-08-08T05:58:53.631Z,4.15
2022-08-08T06:01:52.777Z,5.18
2022-08-08T06:04:23.684Z,4.38
2022-08-08T06:07:00.516Z,3.85
2022-08-08T06:10:00.083Z,4.43
2022-08-08T06:12:29.807Z,3.90
2022-08-08T06:15:06.448Z,3.58
2022-08-08T06:18:18.170Z,3.22
2022-08-08T06:20:26.757Z,3.97
2022-08-08T06:22:56.487Z,4.05
2022-08-08T06:26:36.176Z,3.53
2022-08-08T06:28:30.487Z,3.80
2022-08-08T06:31:02.241Z,3.85
2022-08-08T06:34:26.524Z,4.10
2022-08-08T06:37:01.613Z,2.92
2022-08-08T06:39:57.703Z,3.15
2022-08-08T06:42:36.189Z,3.42
2022-08-08T06:45:06.163Z,3.17
2022-08-08T06:47:53.965Z,2.90
2022-08-08T06:50:34.028Z,2.40
2022-08-08T06:53:17.448Z,2.80
2022-08-08T06:56:02.234Z,2.70
2022-08-08T06:58:33.949Z,2.92
2022-08-08T07:01:52.248Z,3.65
2022-08-08T07:04:39.557Z,2.95
2022-08-08T07:06:56.558Z,2.67
2022-08-08T07:09:45.669Z,3.30
2022-08-08T07:13:06.758Z,2.92
2022-08-08T07:16:10.594Z,2.90
2022-08-08T07:18:57.902Z,2.70
2022-08-08T07:21:36.505Z,2.83
2022-08-08T07:24:19.437Z,3.33
2022-08-08T07:26:59.284Z,2.70
2022-08-08T07:30:00.255Z,2.72
2022-08-08T07:32:24.306Z,2.47
2022-08-08T07:35:00.881Z,1.90
2022-08-08T07:37:56.208Z,1.95
2022-08-08T07:40:32.685Z,1.38
2022-08-08T07:43:08.807Z,2.45
2022-08-08T07:46:04.751Z,2.05
2022-08-08T07:48:30.036Z,1.95
2022-08-08T07:51:00.984Z,1.83
2022-08-08T07:56:59.879Z,0.82
2022-08-08T07:59:37.716Z,1.15
2022-08-08T08:02:35.678Z,1.10
2022-08-08T08:05:01.357Z,0.77
2022-08-08T08:10:12.584Z,1.65
2022-08-08T08:12:59.019Z,1.13
2022-08-08T08:15:31.951Z,1.00
2022-08-08T08:18:03.544Z,0.90
2022-08-08T08:20:31.507Z,0.90
2022-08-08T08:23:03.203Z,1.27
2022-08-08T08:25:43.663Z,0.90
2022-08-08T08:28:21.235Z,0.80
2022-08-08T08:30:54.432Z,0.90
2022-08-08T08:33:25.783Z,0.88
2022-08-08T08:36:17.591Z,0.50
2022-08-08T08:38:49.667Z,0.60
2022-08-08T08:41:20.265Z,0.60
2022-08-08T08:43:52.160Z,0.60
2022-08-08T08:46:25.836Z,0.60
2022-08-08T08:48:55.194Z,0.50
2022-08-08T08:51:28.636Z,0.80
2022-08-08T08:54:04.253Z,0.68
2022-08-08T08:56:37.767Z,1.05
2022-08-08T08:59:15.655Z,0.55
2022-08-08T09:01:53.531Z,0.60
2022-08-08T09:04:38.595Z,0.93
2022-08-08T09:07:20.084Z,0.60
2022-08-08T09:09:57.185Z,0.70
2022-08-08T09:12:29.191Z,0.35
2022-08-08T09:14:59.390Z,0.35
2022-08-08T09:17:42.067Z,0.43
2022-08-08T09:21:57.376Z,0.50
2022-08-08T09:23:17.363Z,0.32
2022-08-08T09:26:16.110Z,0.57
2022-08-08T09:28:44.386Z,0.47
2022-08-08T09:31:56.902Z,0.50
2022-08-08T09:34:35.098Z,0.90
2022-08-08T09:37:57.599Z,0.43
2022-08-08T09:40:11.884Z,0.30
2022-08-08T09:42:51.388Z,0.35
2022-08-08T09:45:55.388Z,0.68
2022-08-08T09:48:33.725Z,0.50
2022-08-08T09:51:05.385Z,1.38
2022-08-08T09:53:56.438Z,1.00
2022-08-08T09:56:34.953Z,0.40
2022-08-08T09:59:50.714Z,0.50
2022-08-08T10:02:14.582Z,0.50
2022-08-08T10:04:47.808Z,0.40
2022-08-08T10:07:16.966Z,0.40
2022-08-08T10:10:00.321Z,0.45
2022-08-08T10:12:53.734Z,0.40
2022-08-08T10:15:27.546Z,0.63
2022-08-08T10:18:09.085Z,0.60
2022-08-08T10:20:58.099Z,0.45
2022-08-08T10:23:58.262Z,0.57
2022-08-08T10:26:52.429Z,0.60
2022-08-08T10:29:58.688Z,0.50
2022-08-08T10:32:40.305Z,0.73
2022-08-08T10:35:20.451Z,0.50
2022-08-08T10:38:09.171Z,0.50
2022-08-08T10:40:42.740Z,0.57
2022-08-08T10:43:10.400Z,0.50
2022-08-08T10:45:56.842Z,0.50
2022-08-08T10:48:56.626Z,0.73
2022-08-08T10:51:26.615Z,0.40
2022-08-08T10:54:02.126Z,0.30
2022-08-08T10:56:36.358Z,0.50
2022-08-08T10:59:14.656Z,0.50
2022-08-08T11:01:49.452Z,0.70
2022-08-08T11:04:29.705Z,0.70
2022-08-08T11:07:06.630Z,0.65
2022-08-08T11:09:34.600Z,0.90
2022-08-08T11:12:12.323Z,0.63
2022-08-08T11:14:59.978Z,0.60
2022-08-08T11:17:59.718Z,0.50
2022-08-08T11:20:27.503Z,1.05
2022-08-08T11:23:01.269Z,0.50
2022-08-08T11:25:51.858Z,0.57
2022-08-08T11:28:29.425Z,0.43
2022-08-08T11:31:04.093Z,0.85
2022-08-08T11:33:51.219Z,0.35
2022-08-08T11:36:23.015Z,0.57
2022-08-08T11:38:57.471Z,0.32
2022-08-08T11:41:28.125Z,0.52
2022-08-08T11:46:30.616Z,0.57
2022-08-08T11:49:01.686Z,0.55
2022-08-08T11:51:40.514Z,0.52
2022-08-08T11:54:31.529Z,0.80
2022-08-08T11:57:27.989Z,0.40
2022-08-08T12:00:07.669Z,0.30
2022-08-08T12:02:57.223Z,0.40
2022-08-08T12:05:36.931Z,0.40
2022-08-08T12:08:04.597Z,0.40
2022-08-08T12:10:33.450Z,0.60
2022-08-08T12:13:07.333Z,0.50
2022-08-08T12:15:43.084Z,0.50
2022-08-08T12:18:20.754Z,0.40
2022-08-08T12:20:54.325Z,0.55
2022-08-08T12:23:43.309Z,0.50
2022-08-08T12:26:27.833Z,0.30
2022-08-08T12:29:19.236Z,0.45
2022-08-08T12:31:53.919Z,0.47
2022-08-08T12:37:41.304Z,0.60
2022-08-08T12:40:23.850Z,0.45
2022-08-08T12:42:53.150Z,0.38
2022-08-08T12:45:58.045Z,0.45
2022-08-08T12:48:37.549Z,0.50
2022-08-08T12:51:07.861Z,0.73
2022-08-08T12:53:58.710Z,0.45
2022-08-08T12:56:38.345Z,0.35
2022-08-08T12:59:18.109Z,0.32
2022-08-08T13:02:21.850Z,0.45
2022-08-08T13:04:59.562Z,1.08
2022-08-08T13:08:03.654Z,0.30
2022-08-08T13:10:32.984Z,0.40
2022-08-08T13:13:05.908Z,0.30
2022-08-08T13:15:35.556Z,0.50
2022-08-08T13:18:11.638Z,0.40
2022-08-08T13:20:48.405Z,0.52
2022-08-08T13:23:36.855Z,0.40
2022-08-08T13:26:15.811Z,0.50
2022-08-08T13:28:45.787Z,0.52
2022-08-08T13:31:16.585Z,0.93
2022-08-08T13:33:49.638Z,0.60
2022-08-08T13:36:18.235Z,0.40
2022-08-08T13:38:54.000Z,0.40
2022-08-08T13:41:22.234Z,0.60
2022-08-08T13:43:50.874Z,0.40
2022-08-08T13:46:26.336Z,0.50
2022-08-08T13:49:11.965Z,0.40
2022-08-08T13:52:02.752Z,0.43
2022-08-08T13:54:35.521Z,0.50
2022-08-08T13:57:16.519Z,0.40
2022-08-08T13:59:49.366Z,1.27
2022-08-08T14:02:33.178Z,0.40
2022-08-08T14:05:04.896Z,0.30
2022-08-08T14:07:51.996Z,0.45
2022-08-08T14:10:33.362Z,0.20
2022-08-08T14:13:30.763Z,0.40
2022-08-08T14:16:04.462Z,0.47
2022-08-08T14:18:35.028Z,0.73
2022-08-08T14:21:07.816Z,0.43
2022-08-08T14:24:04.654Z,0.40
2022-08-08T14:26:33.107Z,0.40
2022-08-08T14:29:01.441Z,0.70
2022-08-08T14:32:06.251Z,0.43
2022-08-08T14:34:23.183Z,0.60
2022-08-08T14:36:54.857Z,0.40
2022-08-08T14:39:24.976Z,0.40
2022-08-08T14:42:09.891Z,0.68
2022-08-08T14:44:39.213Z,0.40
2022-08-08T14:47:16.868Z,0.65
2022-08-08T14:50:06.560Z,0.30
2022-08-08T14:52:46.651Z,0.40
2022-08-08T14:55:16.394Z,0.60
2022-08-08T14:58:03.287Z,0.70
2022-08-08T15:00:37.717Z,0.50
2022-08-08T15:03:15.182Z,0.70
2022-08-08T15:05:53.462Z,0.50
2022-08-08T15:08:34.225Z,0.75
2022-08-08T15:11:04.830Z,0.65
2022-08-08T15:13:39.731Z,0.47
2022-08-08T15:16:11.856Z,0.65
2022-08-08T15:18:44.266Z,0.50
2022-08-08T15:21:18.237Z,0.63
2022-08-08T15:23:51.303Z,0.43
2022-08-08T15:26:25.581Z,0.50
2022-08-08T15:28:54.338Z,0.93
2022-08-08T15:31:38.831Z,0.40
2022-08-08T15:34:18.494Z,0.88
2022-08-08T15:37:03.017Z,0.50
2022-08-08T15:39:38.138Z,1.17
2022-08-08T15:42:12.998Z,0.40
2022-08-08T15:44:41.165Z,0.47
2022-08-08T15:47:15.900Z,0.47
2022-08-08T15:49:48.360Z,0.47
2022-08-08T15:52:18.104Z,1.15
2022-08-08T15:54:51.619Z,0.60
2022-08-08T15:57:20.725Z,0.50
2022-08-08T16:00:12.028Z,0.40
2022-08-08T16:02:50.641Z,0.40
2022-08-08T16:05:21.077Z,0.50
2022-08-08T16:07:52.767Z,1.13
2022-08-08T16:13:10.725Z,0.82
2022-08-08T16:13:45.878Z,0.43
2022-08-08T16:16:16.516Z,0.40
2022-08-08T16:18:56.937Z,0.57
2022-08-08T16:21:31.699Z,0.40
2022-08-08T16:24:01.887Z,0.50
2022-08-08T16:26:35.213Z,0.47
2022-08-08T16:29:15.570Z,0.40
2022-08-08T16:31:49.085Z,0.68
2022-08-08T16:34:21.308Z,0.60
2022-08-08T16:36:50.503Z,1.02
2022-08-08T16:39:59.478Z,1.15
2022-08-08T16:42:05.618Z,0.70
2022-08-08T16:44:34.273Z,0.43
2022-08-08T16:47:40.628Z,0.50
2022-08-08T16:50:14.290Z,0.40
2022-08-08T16:55:06.465Z,0.50
2022-08-08T16:55:55.499Z,0.70
2022-08-08T16:58:26.595Z,0.50
2022-08-08T17:00:59.181Z,0.80
2022-08-08T17:04:00.242Z,0.47
2022-08-08T17:06:37.527Z,0.50
2022-08-08T17:09:04.943Z,0.50
2022-08-08T17:11:39.170Z,0.40
2022-08-08T17:14:18.917Z,1.15
2022-08-08T17:16:57.155Z,0.65
2022-08-08T17:19:29.808Z,0.47
2022-08-08T17:22:01.113Z,0.35
2022-08-08T17:24:30.444Z,0.55
2022-08-08T17:26:59.316Z,0.50
2022-08-08T17:29:33.854Z,0.55
2022-08-08T17:35:00.257Z,0.50
2022-08-08T17:37:25.055Z,0.52
2022-08-08T17:40:06.172Z,0.82
2022-08-08T17:42:40.602Z,0.65
2022-08-08T17:45:14.165Z,0.55
2022-08-08T17:47:51.011Z,0.50
2022-08-08T17:50:18.640Z,0.70
2022-08-08T17:52:47.461Z,0.57
2022-08-08T17:56:06.231Z,0.68
2022-08-08T17:58:02.264Z,0.52
2022-08-08T18:00:30.767Z,0.90
2022-08-08T18:03:07.610Z,0.73
2022-08-08T18:05:49.372Z,0.70
2022-08-08T18:08:37.839Z,1.15
2022-08-08T18:11:17.055Z,1.13
2022-08-08T18:13:47.136Z,1.08
2022-08-08T18:16:17.117Z,0.60
2022-08-08T18:18:56.558Z,0.60
2022-08-08T18:21:59.955Z,0.70
2022-08-08T18:24:21.377Z,0.80
2022-08-08T18:26:54.291Z,0.70
2022-08-08T18:29:34.079Z,0.70
2022-08-08T18:32:08.524Z,0.88
2022-08-08T18:34:37.828Z,0.65
2022-08-08T18:37:06.691Z,1.20
2022-08-08T18:39:41.136Z,0.65
2022-08-08T18:42:16.340Z,0.70
2022-08-08T18:44:56.039Z,0.82
2022-08-08T18:47:31.390Z,0.73
2022-08-08T18:50:02.883Z,0.60
2022-08-08T18:52:34.654Z,0.80
2022-08-08T18:55:10.260Z,0.80
2022-08-08T18:57:43.524Z,1.55
2022-08-08T19:00:21.431Z,0.70
2022-08-08T19:03:04.011Z,0.90
2022-08-08T19:05:46.491Z,0.73
2022-08-08T19:08:25.114Z,0.80
2022-08-08T19:10:58.367Z,0.85
2022-08-08T19:13:53.278Z,0.80
2022-08-08T19:16:15.858Z,0.88
2022-08-08T19:18:53.066Z,0.70
2022-08-08T19:21:29.284Z,0.90
2022-08-08T19:23:58.379Z,0.90
2022-08-08T19:26:30.426Z,1.25
2022-08-08T19:29:04.562Z,0.98
2022-08-08T19:31:35.241Z,1.35
2022-08-08T19:34:36.339Z,1.23
2022-08-08T19:36:58.569Z,1.33
2022-08-08T19:39:30.909Z,0.80
2022-08-08T19:42:10.596Z,0.80
2022-08-08T19:44:46.238Z,1.10
2022-08-08T19:47:23.966Z,1.25
2022-08-08T19:49:59.614Z,1.05
2022-08-08T19:52:34.653Z,0.90
2022-08-08T19:55:09.630Z,0.80
2022-08-08T19:57:44.375Z,0.88
2022-08-08T20:00:30.551Z,0.80
2022-08-08T20:03:14.493Z,0.57
2022-08-08T20:06:16.310Z,1.13
2022-08-08T20:08:47.657Z,1.05
2022-08-08T20:11:16.278Z,0.90
2022-08-08T20:14:32.645Z,0.95
2022-08-08T20:16:35.234Z,0.73
2022-08-08T20:19:06.397Z,0.77
2022-08-08T20:21:38.075Z,1.10
2022-08-08T20:24:10.831Z,0.70
2022-08-08T20:26:41.640Z,1.10
2022-08-08T20:29:14.150Z,1.52
2022-08-08T20:32:07.104Z,0.80
2022-08-08T20:34:31.865Z,0.85
2022-08-08T20:37:02.347Z,1.10
2022-08-08T20:39:38.957Z,1.40
2022-08-08T20:42:08.883Z,1.10
2022-08-08T20:44:37.555Z,1.20
2022-08-08T20:47:15.689Z,1.20
2022-08-08T20:49:50.660Z,1.45
2022-08-08T20:52:21.733Z,1.17
2022-08-08T20:54:50.506Z,0.80
2022-08-08T20:57:19.087Z,1.17
2022-08-08T20:59:48.581Z,1.00
2022-08-08T21:02:25.434Z,1.10
2022-08-08T21:05:01.025Z,0.90
2022-08-08T21:08:07.788Z,2.03
2022-08-08T21:10:20.906Z,2.38
2022-08-08T21:12:54.204Z,1.52
2022-08-08T21:16:04.771Z,1.05
2022-08-08T21:18:09.627Z,1.17
2022-08-08T21:20:38.783Z,1.13
2022-08-08T21:23:09.160Z,1.20
2022-08-08T21:25:36.869Z,1.15
2022-08-08T21:28:15.872Z,1.92
2022-08-08T21:30:45.346Z,1.30
2022-08-08T21:33:20.657Z,1.33
2022-08-08T21:36:14.174Z,1.10
2022-08-08T21:38:36.706Z,1.80
2022-08-08T21:41:04.290Z,1.17
2022-08-08T21:43:34.181Z,1.10
2022-08-08T21:48:08.146Z,3.78
2022-08-08T21:48:55.349Z,2.25
2022-08-08T21:54:36.376Z,2.15
2022-08-08T21:54:36.380Z,1.55
2022-08-08T21:57:03.053Z,1.70
2022-08-08T22:00:01.541Z,1.80
2022-08-08T22:02:19.349Z,1.40
2022-08-08T22:04:52.837Z,1.40
2022-08-08T22:07:20.089Z,1.40
2022-08-08T22:09:53.212Z,1.33
2022-08-08T22:12:20.135Z,1.15
2022-08-08T22:14:52.325Z,1.80
2022-08-08T22:17:19.648Z,1.25
2022-08-08T22:20:12.078Z,1.92
2022-08-08T22:22:38.112Z,1.15
2022-08-08T22:25:12.497Z,1.67
2022-08-08T22:28:02.567Z,1.63
2022-08-08T22:30:33.499Z,1.67
2022-08-08T22:33:02.760Z,1.52
2022-08-08T22:36:05.430Z,1.77
2022-08-08T22:38:23.194Z,1.45
2022-08-08T22:40:51.097Z,1.50
2022-08-08T22:43:20.108Z,1.83
2022-08-08T22:45:52.611Z,1.70
2022-08-08T22:48:21.594Z,1.65
2022-08-08T22:50:49.675Z,2.00
2022-08-08T22:54:30.278Z,1.50
2022-08-08T22:56:05.448Z,2.45
2022-08-08T22:58:34.933Z,1.67
2022-08-08T23:01:16.591Z,1.95
2022-08-08T23:03:57.635Z,1.65
2022-08-08T23:06:27.749Z,1.67
2022-08-08T23:09:00.210Z,2.17
2022-08-08T23:12:27.531Z,2.00
2022-08-08T23:14:21.280Z,1.85
2022-08-08T23:16:58.026Z,1.98
2022-08-08T23:19:30.919Z,2.42
2022-08-08T23:22:05.167Z,2.40
2022-08-08T23:24:41.409Z,2.13
2022-08-08T23:27:17.254Z,2.08
2022-08-08T23:30:03.060Z,2.45
2022-08-08T23:32:31.359Z,2.30
2022-08-08T23:35:00.021Z,1.88
2022-08-08T23:38:00.692Z,2.00
2022-08-08T23:40:14.999Z,2.10
2022-08-08T23:42:45.197Z,1.88
2022-08-08T23:45:13.475Z,1.85
2022-08-08T23:49:03.018Z,2.05
2022-08-08T23:50:30.307Z,1.98
2022-08-08T23:52:59.304Z,2.35
2022-08-08T23:55:33.722Z,2.00
2022-08-08T23:58:09.230Z,2.00
